Time;durP1;ratioP1;P1;durP2;ratioP2;P2;SDS_P1;SDS_P2;PMS_P1;PMS_P2;Temp;Humidity;BMP_temperature;BMP_pressure;BME280_temperature;BME280_humidity;BME280_pressure;Samples;Min_cycle;Max_cycle;Signal;HPM_P1;HPM_P2
2022/09/15 00:00:27;;;;;;;15.70;14.27;;;;;;;11.58;100.00;100768.50;5199786;28;20032;-81
2022/09/15 00:02:58;;;;;;;17.95;15.55;;;;;;;11.49;100.00;100769.03;5217326;28;20065;-82
2022/09/15 00:05:28;;;;;;;14.75;13.57;;;;;;;11.35;100.00;100759.78;5215817;28;20087;-81
2022/09/15 00:07:59;;;;;;;15.15;13.25;;;;;;;11.36;100.00;100774.91;5216449;28;20026;-80
2022/09/15 00:10:29;;;;;;;16.38;14.77;;;;;;;11.28;100.00;100766.50;5198609;28;20029;-80
2022/09/15 00:13:00;;;;;;;14.52;13.45;;;;;;;11.21;100.00;100769.47;5197939;28;20029;-81
2022/09/15 00:15:30;;;;;;;13.95;12.75;;;;;;;11.09;100.00;100763.44;5196745;28;20040;-80
2022/09/15 00:18:02;;;;;;;17.45;13.43;;;;;;;11.04;100.00;100753.41;5217365;28;20026;-80
2022/09/15 00:20:32;;;;;;;14.50;13.15;;;;;;;10.88;100.00;100740.06;5216215;28;20032;-80
2022/09/15 00:23:02;;;;;;;13.82;12.55;;;;;;;10.92;100.00;100757.38;5215834;28;20025;-80
2022/09/15 00:25:33;;;;;;;15.02;13.68;;;;;;;10.60;100.00;100728.53;5215825;28;20537;-80
2022/09/15 00:28:03;;;;;;;14.68;13.13;;;;;;;10.88;100.00;100761.69;5216696;28;20045;-80
2022/09/15 00:30:34;;;;;;;14.48;13.07;;;;;;;10.85;100.00;100754.09;5215136;28;20064;-79
2022/09/15 00:33:04;;;;;;;16.35;14.98;;;;;;;10.86;100.00;100763.81;5215515;28;20036;-81
2022/09/15 00:35:37;;;;;;;15.88;14.27;;;;;;;10.79;100.00;100756.75;5215879;28;20100;-80
2022/09/15 00:38:09;;;;;;;19.38;14.75;;;;;;;10.82;100.00;100760.81;5216416;28;20395;-81
2022/09/15 00:40:47;;;;;;;14.73;13.48;;;;;;;10.75;100.00;100749.44;5216481;28;20092;-82
2022/09/15 00:43:19;;;;;;;14.30;13.15;;;;;;;10.75;100.00;100758.34;5216283;28;20511;-80
2022/09/15 00:45:50;;;;;;;17.92;16.52;;;;;;;10.55;100.00;100728.50;5216931;28;20029;-81
2022/09/15 00:48:21;;;;;;;15.25;14.13;;;;;;;10.80;100.00;100762.97;5199558;28;20079;-81
2022/09/15 00:50:56;;;;;;;15.95;14.25;;;;;;;10.89;100.00;100757.91;5217111;28;20049;-81
2022/09/15 00:53:28;;;;;;;17.52;15.98;;;;;;;10.94;100.00;100764.16;5216509;28;20413;-81
2022/09/15 00:56:00;;;;;;;15.85;14.57;;;;;;;10.97;100.00;100752.03;5217853;28;20025;-82
2022/09/15 00:59:02;;;;;;;15.10;13.77;;;;;;;11.09;100.00;100755.31;5218913;28;20036;-81
2022/09/15 01:01:33;;;;;;;15.18;13.75;;;;;;;11.03;100.00;100743.66;5186591;28;20030;-81
2022/09/15 01:04:03;;;;;;;16.45;15.05;;;;;;;11.15;100.00;100755.09;5200848;28;20055;-81
2022/09/15 01:06:49;;;;;;;14.40;13.07;;;;;;;11.33;100.00;100767.34;5220186;28;20040;-81
2022/09/15 01:09:29;;;;;;;19.42;17.40;;;;;;;11.32;100.00;100749.50;5201422;28;20021;-81
2022/09/15 01:12:01;;;;;;;19.27;16.55;;;;;;;11.44;100.00;100763.63;5217058;28;20056;-81
2022/09/15 01:14:32;;;;;;;16.75;15.00;;;;;;;11.54;100.00;100757.44;5215355;28;20025;-82
2022/09/15 01:17:07;;;;;;;21.33;14.55;;;;;;;11.48;100.00;100734.97;5199284;28;20036;-81
2022/09/15 01:19:40;;;;;;;16.77;15.52;;;;;;;11.73;100.00;100760.47;5217857;28;20028;-81
2022/09/15 01:22:17;;;;;;;19.45;17.17;;;;;;;11.81;100.00;100762.69;5216783;28;20033;-81
2022/09/15 01:25:06;;;;;;;18.52;16.98;;;;;;;11.87;100.00;100753.50;5198260;28;20040;-81
2022/09/15 01:27:55;;;;;;;24.73;16.52;;;;;;;11.92;100.00;100772.44;5222120;28;20026;-81
2022/09/15 01:30:27;;;;;;;22.75;17.50;;;;;;;11.83;100.00;100747.00;5221515;28;20044;-82
2022/09/15 01:33:04;;;;;;;19.23;17.48;;;;;;;12.00;100.00;100769.22;5203285;28;20036;-81
2022/09/15 01:35:48;;;;;;;18.67;16.98;;;;;;;12.04;100.00;100773.03;5203025;28;20033;-81
2022/09/15 01:38:25;;;;;;;18.75;17.00;;;;;;;11.99;100.00;100759.47;5217788;28;20033;-82
2022/09/15 01:41:08;;;;;;;16.35;14.93;;;;;;;12.09;100.00;100770.34;5218138;28;20029;-81
2022/09/15 01:43:46;;;;;;;24.50;19.67;;;;;;;12.09;100.00;100764.94;5199280;28;20056;-81
2022/09/15 01:46:20;;;;;;;19.10;17.40;;;;;;;12.02;100.00;100761.66;5200156;28;20079;-81
2022/09/15 01:48:54;;;;;;;19.05;17.02;;;;;;;12.02;100.00;100772.47;5216365;28;20033;-81
2022/09/15 01:51:25;;;;;;;26.88;18.33;;;;;;;12.04;100.00;100777.63;5214966;28;20037;-81
2022/09/15 01:54:01;;;;;;;16.58;15.15;;;;;;;11.98;100.00;100767.88;5213357;28;20032;-81
2022/09/15 01:56:31;;;;;;;18.83;15.65;;;;;;;11.84;100.00;100757.53;5215618;28;20029;-82
2022/09/15 01:59:02;;;;;;;23.33;16.98;;;;;;;11.98;100.00;100778.69;5215334;28;20029;-81
2022/09/15 02:01:44;;;;;;;17.48;16.05;;;;;;;11.91;100.00;100759.19;5215089;28;20021;-82
2022/09/15 02:04:49;;;;;;;18.23;16.65;;;;;;;11.97;100.00;100761.63;5195439;28;20033;-81
2022/09/15 02:07:35;;;;;;;19.17;17.40;;;;;;;12.00;100.00;100760.28;5214551;28;20032;-82
2022/09/15 02:10:25;;;;;;;18.17;16.23;;;;;;;12.02;100.00;100758.94;5214393;28;20049;-82
2022/09/15 02:13:41;;;;;;;16.88;14.88;;;;;;;12.05;100.00;100768.44;5214807;28;20030;-82
2022/09/15 02:16:18;;;;;;;17.13;15.55;;;;;;;12.07;100.00;100772.50;5183454;28;20117;-81
2022/09/15 02:19:01;;;;;;;16.63;15.23;;;;;;;12.11;100.00;100773.59;5214312;28;20030;-81
2022/09/15 02:21:40;;;;;;;18.15;16.67;;;;;;;12.02;100.00;100753.53;5214529;28;20032;-81
2022/09/15 02:24:17;;;;;;;17.27;15.63;;;;;;;12.21;100.00;100761.94;5196037;28;20101;-82
2022/09/15 02:26:50;;;;;;;17.83;16.33;;;;;;;12.26;100.00;100766.56;5215176;28;20080;-81
2022/09/15 02:29:25;;;;;;;19.23;17.75;;;;;;;12.12;100.00;100737.31;5214437;28;20030;-81
2022/09/15 02:31:58;;;;;;;18.63;17.13;;;;;;;12.28;100.00;100761.69;5196628;28;20022;-81
2022/09/15 02:34:36;;;;;;;22.13;19.98;;;;;;;12.23;100.00;100748.16;5213499;28;20021;-81
2022/09/15 02:37:08;;;;;;;21.00;16.92;;;;;;;12.36;100.00;100758.44;5196862;28;20021;-82
2022/09/15 02:39:45;;;;;;;20.83;19.10;;;;;;;12.30;100.00;100748.69;5213624;28;20051;-81
2022/09/15 02:42:27;;;;;;;20.25;18.13;;;;;;;12.36;100.00;100747.63;5214057;28;20029;-81
2022/09/15 02:44:59;;;;;;;20.27;16.98;;;;;;;12.43;100.00;100761.69;5212625;28;20025;-81
2022/09/15 02:47:30;;;;;;;22.10;20.13;;;;;;;12.37;100.00;100750.06;5214141;28;20498;-81
2022/09/15 02:50:01;;;;;;;21.15;19.00;;;;;;;12.46;100.00;100761.97;5213729;28;20025;-81
2022/09/15 02:52:31;;;;;;;17.73;15.85;;;;;;;12.48;100.00;100761.69;5196026;28;20087;-82
2022/09/15 02:55:03;;;;;;;21.40;19.48;;;;;;;12.48;100.00;100761.69;5213824;28;20021;-81
2022/09/15 02:57:33;;;;;;;23.10;19.02;;;;;;;12.56;100.00;100763.06;5214383;28;20032;-81
2022/09/15 03:00:15;;;;;;;27.38;21.80;;;;;;;12.55;100.00;100762.25;5213488;28;20029;-82
2022/09/15 03:02:51;;;;;;;22.38;20.15;;;;;;;12.57;100.00;100770.91;5216447;22;20122;-69
2022/09/15 03:05:27;;;;;;;25.25;21.48;;;;;;;12.58;100.00;100763.59;5217316;28;20032;-68
2022/09/15 03:07:57;;;;;;;20.80;18.83;;;;;;;12.50;100.00;100762.22;5221213;28;20039;-68
2022/09/15 03:10:28;;;;;;;21.65;19.45;;;;;;;12.58;100.00;100764.41;5221342;28;20096;-68
2022/09/15 03:12:58;;;;;;;19.55;17.70;;;;;;;12.41;100.00;100739.50;5221376;28;20498;-69
2022/09/15 03:15:28;;;;;;;21.40;18.73;;;;;;;12.56;100.00;100765.75;5219325;28;20040;-69
2022/09/15 03:18:00;;;;;;;22.40;20.25;;;;;;;12.34;100.00;100739.75;5221488;28;20025;-69
2022/09/15 03:20:30;;;;;;;24.15;21.50;;;;;;;12.46;100.00;100759.25;5219784;28;20029;-68
2022/09/15 03:23:02;;;;;;;22.88;20.60;;;;;;;12.51;100.00;100772.00;5219587;28;20079;-69
2022/09/15 03:25:32;;;;;;;23.48;20.90;;;;;;;12.51;100.00;100772.78;5220752;28;20098;-68
2022/09/15 03:28:02;;;;;;;23.65;21.83;;;;;;;12.51;100.00;100780.09;5220904;28;20033;-68
2022/09/15 03:30:33;;;;;;;25.42;23.30;;;;;;;12.39;100.00;100757.91;5221030;28;20463;-68
2022/09/15 03:33:04;;;;;;;29.48;22.77;;;;;;;12.50;100.00;100778.47;5219635;28;20053;-68
2022/09/15 03:35:34;;;;;;;25.27;21.45;;;;;;;12.50;100.00;100775.78;5218837;28;20492;-69
2022/09/15 03:38:04;;;;;;;24.55;22.45;;;;;;;12.47;100.00;100781.72;5220836;28;20112;-69
2022/09/15 03:40:36;;;;;;;25.35;22.85;;;;;;;12.43;100.00;100776.03;5220950;28;20017;-69
2022/09/15 03:43:07;;;;;;;24.90;22.80;;;;;;;12.36;100.00;100772.00;5219573;28;20028;-69
2022/09/15 03:45:37;;;;;;;27.92;25.25;;;;;;;12.10;100.00;100739.47;5218838;28;20025;-68
2022/09/15 03:48:08;;;;;;;23.33;21.33;;;;;;;11.92;100.00;100722.94;5221143;28;20013;-68
2022/09/15 03:50:38;;;;;;;25.90;23.38;;;;;;;12.06;100.00;100760.03;5220696;28;20031;-69
2022/09/15 03:53:09;;;;;;;29.13;26.63;;;;;;;11.98;100.00;100765.97;5220647;28;20306;-68
2022/09/15 03:55:39;;;;;;;25.25;22.67;;;;;;;11.85;100.00;100755.66;5220327;28;20408;-69
2022/09/15 03:58:10;;;;;;;33.35;27.83;;;;;;;11.84;100.00;100751.31;5221903;28;20547;-69
2022/09/15 04:00:41;;;;;;;29.05;25.88;;;;;;;11.91;100.00;100768.13;5223033;28;20032;-69
2022/09/15 04:03:12;;;;;;;24.42;21.98;;;;;;;11.84;100.00;100767.53;5224475;28;20032;-68
2022/09/15 04:05:43;;;;;;;28.15;25.15;;;;;;;11.73;100.00;100763.19;5223976;28;20024;-68
2022/09/15 04:08:13;;;;;;;29.05;26.60;;;;;;;11.75;100.00;100756.44;5224372;28;20021;-68
2022/09/15 04:10:44;;;;;;;32.65;29.08;;;;;;;11.59;100.00;100727.69;5224195;28;20048;-69
2022/09/15 04:13:14;;;;;;;32.22;29.05;;;;;;;11.84;100.00;100764.84;5222475;28;20024;-68
2022/09/15 04:15:45;;;;;;;30.48;24.15;;;;;;;11.87;100.00;100756.19;5224241;28;20189;-67
2022/09/15 04:18:15;;;;;;;31.02;27.83;;;;;;;11.76;100.00;100743.72;5224311;28;20028;-68
2022/09/15 04:20:45;;;;;;;29.30;26.58;;;;;;;11.81;100.00;100765.41;5224210;28;20027;-68
2022/09/15 04:23:16;;;;;;;34.13;29.85;;;;;;;11.81;100.00;100771.63;5224495;28;20499;-68
2022/09/15 04:26:01;;;;;;;28.40;25.65;;;;;;;11.77;100.00;100761.59;5223716;28;20481;-69
2022/09/15 04:28:35;;;;;;;31.67;28.38;;;;;;;11.66;100.00;100765.31;5222767;28;20033;-68
2022/09/15 04:31:08;;;;;;;27.52;24.90;;;;;;;11.61;100.00;100771.50;5224223;28;20025;-68
2022/09/15 04:33:40;;;;;;;29.13;26.23;;;;;;;11.58;100.00;100768.50;5194027;28;20500;-69
2022/09/15 04:36:17;;;;;;;33.95;26.38;;;;;;;11.51;100.00;100771.50;5182667;28;20040;-68
2022/09/15 04:38:49;;;;;;;28.83;26.35;;;;;;;11.42;100.00;100771.16;5182671;28;20022;-69
2022/09/15 04:41:19;;;;;;;33.28;29.83;;;;;;;11.37;100.00;100763.03;5181456;28;20458;-69
2022/09/15 04:43:50;;;;;;;29.42;26.63;;;;;;;11.37;100.00;100775.75;5193647;28;20029;-68
2022/09/15 04:46:20;;;;;;;28.88;26.35;;;;;;;11.30;100.00;100775.97;5199992;28;20028;-69
2022/09/15 04:48:51;;;;;;;26.92;24.25;;;;;;;11.18;100.00;100769.16;5200532;28;20026;-68
2022/09/15 04:51:22;;;;;;;25.77;23.23;;;;;;;11.16;100.00;100772.94;5200948;28;20021;-67
2022/09/15 04:53:53;;;;;;;29.42;26.55;;;;;;;11.15;100.00;100781.31;5200521;28;20105;-68
2022/09/15 04:56:25;;;;;;;27.40;25.23;;;;;;;11.09;100.00;100766.94;5201355;28;20021;-67
2022/09/15 04:58:57;;;;;;;28.15;25.80;;;;;;;11.08;100.00;100780.72;5200188;28;20032;-67
2022/09/15 05:01:32;;;;;;;28.83;26.20;;;;;;;11.07;100.00;100782.59;5203218;28;20032;-67
2022/09/15 05:04:03;;;;;;;30.23;27.73;;;;;;;11.10;100.00;100784.78;5202327;28;20045;-67
2022/09/15 05:06:34;;;;;;;29.85;27.27;;;;;;;10.76;100.00;100727.56;5202774;28;20369;-67
2022/09/15 05:09:06;;;;;;;31.08;25.50;;;;;;;11.03;100.00;100789.59;5201690;28;20037;-68
2022/09/15 05:11:37;;;;;;;24.48;22.33;;;;;;;10.99;100.00;100779.56;5202693;28;20073;-68
2022/09/15 05:14:09;;;;;;;25.88;23.48;;;;;;;11.00;100.00;100773.91;5199901;28;20056;-68
2022/09/15 05:16:39;;;;;;;29.55;26.88;;;;;;;11.02;100.00;100781.75;5202883;28;20029;-67
2022/09/15 05:19:10;;;;;;;30.65;28.13;;;;;;;11.06;100.00;100790.97;5201401;28;20034;-68
2022/09/15 05:21:40;;;;;;;31.75;28.90;;;;;;;11.06;100.00;100783.69;5201119;28;20029;-68
2022/09/15 05:24:11;;;;;;;30.10;27.60;;;;;;;11.06;100.00;100794.50;5201780;28;20108;-67
2022/09/15 05:26:41;;;;;;;27.58;24.98;;;;;;;11.00;100.00;100789.31;5199660;28;20052;-67
2022/09/15 05:29:12;;;;;;;36.75;28.48;;;;;;;10.96;100.00;100789.03;5200917;28;20162;-69
2022/09/15 05:31:42;;;;;;;30.40;27.95;;;;;;;10.95;100.00;100786.59;5199265;28;20474;-67
2022/09/15 05:34:14;;;;;;;33.97;30.83;;;;;;;10.81;100.00;100767.31;5197857;28;20178;-68
2022/09/15 05:36:44;;;;;;;26.33;23.65;;;;;;;10.98;100.00;100796.84;5201508;28;20489;-68
2022/09/15 05:39:14;;;;;;;29.05;26.65;;;;;;;11.00;100.00;100798.22;5203447;28;20033;-68
2022/09/15 05:41:45;;;;;;;33.95;30.77;;;;;;;10.86;100.00;100767.34;5366077;22;20048;-91
2022/09/15 05:44:15;;;;;;;32.80;29.75;;;;;;;10.92;100.00;100773.59;5187530;28;20715;-91
2022/09/15 05:46:46;;;;;;;32.17;29.45;;;;;;;11.10;100.00;100789.38;5187753;28;20029;-91
2022/09/15 05:49:20;;;;;;;34.53;31.00;;;;;;;11.13;100.00;100772.66;5205152;28;20522;-90
2022/09/15 05:51:50;;;;;;;34.97;31.48;;;;;;;-141.48;100.00;69781.59;5187374;28;20348;-90
2022/09/15 05:54:21;;;;;;;35.60;31.83;;;;;;;-141.48;100.00;69781.59;5186753;28;20068;-90
2022/09/15 05:56:51;;;;;;;32.22;29.10;;;;;;;-141.48;100.00;69781.59;5187105;28;20030;-90
2022/09/15 05:59:21;;;;;;;35.83;32.33;;;;;;;-141.48;100.00;69781.59;5187012;28;20520;-90
2022/09/15 06:01:52;;;;;;;35.47;32.38;;;;;;;-141.48;100.00;69781.59;5204808;28;20032;-89
2022/09/15 06:04:22;;;;;;;31.52;28.42;;;;;;;-141.48;100.00;69781.59;5204508;28;20097;-90
2022/09/15 06:06:53;;;;;;;31.73;29.00;;;;;;;-141.48;100.00;69781.59;5204774;28;20075;-91
2022/09/15 06:09:26;;;;;;;33.25;29.95;;;;;;;-141.48;100.00;69781.59;5188407;28;20029;-89
2022/09/15 06:11:56;;;;;;;35.80;32.40;;;;;;;-141.48;100.00;69781.59;5204652;28;20021;-89
2022/09/15 06:14:27;;;;;;;38.30;34.95;;;;;;;-141.48;100.00;69781.59;5204128;28;20029;-90
2022/09/15 06:16:57;;;;;;;37.88;34.30;;;;;;;-141.48;100.00;69781.59;5186245;28;20033;-90
2022/09/15 06:19:27;;;;;;;36.22;32.83;;;;;;;-141.48;100.00;69781.59;5203391;28;20047;-89
2022/09/15 06:21:58;;;;;;;35.28;32.17;;;;;;;-141.48;100.00;69781.59;5203901;28;20402;-89
2022/09/15 06:24:28;;;;;;;36.42;33.05;;;;;;;-141.48;100.00;69781.59;5185291;28;20025;-89
2022/09/15 06:26:59;;;;;;;35.25;32.22;;;;;;;-141.48;100.00;69781.59;5186517;28;20139;-90
2022/09/15 06:29:31;;;;;;;36.83;32.72;;;;;;;-141.48;100.00;69781.59;5186268;28;20017;-90
2022/09/15 06:32:01;;;;;;;36.35;32.95;;;;;;;-141.48;100.00;69781.59;5186105;28;20040;-90
2022/09/15 06:34:32;;;;;;;40.42;33.53;;;;;;;-141.48;100.00;69781.59;5185776;28;20025;-90
2022/09/15 06:37:17;;;;;;;37.58;34.03;;;;;;;-141.48;100.00;69781.59;5186557;28;20322;-92
2022/09/15 06:39:50;;;;;;;34.15;31.38;;;;;;;-141.48;100.00;69781.59;5186814;28;20043;-90
2022/09/15 06:42:36;;;;;;;38.88;35.05;;;;;;;-141.48;100.00;69781.59;5186515;28;20076;-90
2022/09/15 06:45:07;;;;;;;34.17;30.67;;;;;;;-141.48;100.00;69781.59;5185929;28;20025;-89
2022/09/15 06:47:37;;;;;;;37.47;33.67;;;;;;;-141.48;100.00;69781.59;5186137;28;20031;-90
2022/09/15 06:50:08;;;;;;;34.15;31.50;;;;;;;-141.48;100.00;69781.59;5186183;28;20548;-90
2022/09/15 06:52:38;;;;;;;33.92;30.75;;;;;;;-141.48;100.00;69781.59;5202960;28;20021;-90
2022/09/15 06:55:08;;;;;;;32.55;29.55;;;;;;;-141.48;100.00;69781.59;5203362;28;20124;-90
2022/09/15 06:57:41;;;;;;;32.13;28.52;;;;;;;-141.48;100.00;69781.59;5186169;28;20052;-91
2022/09/15 07:00:12;;;;;;;35.28;30.52;;;;;;;-141.48;100.00;69781.59;5186213;28;20501;-91
2022/09/15 07:02:42;;;;;;;29.95;27.65;;;;;;;-141.48;100.00;69781.59;5185937;28;20025;-90
2022/09/15 07:05:13;;;;;;;31.75;27.95;;;;;;;-141.48;100.00;69781.59;5185140;28;20108;-89
2022/09/15 07:07:43;;;;;;;28.95;26.15;;;;;;;-141.48;100.00;69781.59;5186471;28;20025;-89
2022/09/15 07:10:13;;;;;;;27.10;24.90;;;;;;;-141.48;100.00;69781.59;5188517;28;20124;-89
2022/09/15 07:12:45;;;;;;;31.60;27.70;;;;;;;-141.48;100.00;69781.59;5205234;28;20026;-90
2022/09/15 07:15:15;;;;;;;30.30;25.90;;;;;;;-141.48;100.00;69781.59;5186559;28;20037;-90
2022/09/15 07:17:46;;;;;;;30.05;27.08;;;;;;;-141.48;100.00;69781.59;5203810;28;20026;-90
2022/09/15 07:20:18;;;;;;;26.80;24.50;;;;;;;-141.48;100.00;69781.59;5186359;28;20053;-90
2022/09/15 07:22:49;;;;;;;27.80;25.27;;;;;;;-141.48;100.00;69781.59;5185701;28;20428;-91
2022/09/15 07:25:19;;;;;;;23.25;21.48;;;;;;;-141.48;100.00;69781.59;5185125;28;20135;-91
2022/09/15 07:27:50;;;;;;;27.35;24.52;;;;;;;-141.48;100.00;69781.59;5203858;28;20034;-90
2022/09/15 07:30:20;;;;;;;26.15;23.55;;;;;;;-141.48;100.00;69781.59;5185829;28;20036;-92
2022/09/15 07:32:51;;;;;;;28.63;25.58;;;;;;;-141.48;100.00;69781.59;5189575;28;20025;-91
2022/09/15 07:35:21;;;;;;;25.35;22.95;;;;;;;-141.48;100.00;69781.59;5190103;28;20115;-91
2022/09/15 07:37:52;;;;;;;27.08;24.65;;;;;;;-141.48;100.00;69781.59;5191277;28;20057;-91
2022/09/15 07:40:22;;;;;;;24.60;22.35;;;;;;;-141.48;100.00;69781.59;5187191;28;20037;-90
2022/09/15 07:42:52;;;;;;;24.10;21.95;;;;;;;-141.48;100.00;69781.59;5189429;28;20518;-90
2022/09/15 07:45:23;;;;;;;22.85;20.92;;;;;;;-141.48;100.00;69781.59;5189395;28;20057;-91
2022/09/15 07:47:53;;;;;;;23.30;21.20;;;;;;;-141.48;100.00;69781.59;5207514;28;20047;-91
2022/09/15 07:50:24;;;;;;;23.13;20.88;;;;;;;-141.48;100.00;69781.59;5207518;28;20065;-91
2022/09/15 07:52:55;;;;;;;23.50;21.70;;;;;;;-141.48;100.00;69781.59;5190598;28;20424;-92
2022/09/15 07:55:25;;;;;;;25.08;23.00;;;;;;;-141.48;100.00;69781.59;5190117;28;20025;-90
2022/09/15 07:57:58;;;;;;;23.50;21.30;;;;;;;-141.48;100.00;69781.59;5216132;28;20049;-90
2022/09/15 08:00:28;;;;;;;23.30;21.40;;;;;;;-141.48;100.00;69781.59;5200903;28;20135;-90
2022/09/15 08:02:58;;;;;;;25.65;22.10;;;;;;;-141.48;100.00;69781.59;5189860;28;20128;-90
2022/09/15 08:05:29;;;;;;;24.17;21.80;;;;;;;-141.48;100.00;69781.59;5206896;28;20030;-90
2022/09/15 08:07:59;;;;;;;25.65;22.92;;;;;;;-141.48;100.00;69781.59;5190521;28;20088;-91
2022/09/15 08:10:30;;;;;;;22.00;17.92;;;;;;;-141.48;100.00;69781.59;5189292;28;20036;-91
2022/09/15 08:13:00;;;;;;;21.63;19.92;;;;;;;-141.48;100.00;69781.59;5191229;28;20452;-91
2022/09/15 08:15:34;;;;;;;21.50;19.40;;;;;;;-141.48;100.00;69781.59;5189636;28;20108;-90
2022/09/15 08:18:05;;;;;;;22.63;20.80;;;;;;;-141.48;100.00;69781.59;5208081;28;20032;-91
2022/09/15 08:20:39;;;;;;;17.52;15.77;;;;;;;-141.48;100.00;69781.59;5208272;28;20025;-90
2022/09/15 08:23:10;;;;;;;21.17;19.38;;;;;;;-141.48;100.00;69781.59;5189414;28;20079;-91
2022/09/15 08:25:40;;;;;;;20.35;18.52;;;;;;;-141.48;100.00;69781.59;5189212;28;20037;-91
2022/09/15 08:28:11;;;;;;;22.23;18.83;;;;;;;-141.48;100.00;69781.59;5207948;28;20383;-91
2022/09/15 08:30:41;;;;;;;20.50;18.67;;;;;;;-141.48;100.00;69781.59;5188639;28;20028;-91
2022/09/15 08:33:11;;;;;;;17.58;16.08;;;;;;;-141.48;100.00;69781.59;5206677;28;20570;-90
2022/09/15 08:35:42;;;;;;;19.00;17.50;;;;;;;-141.48;100.00;69781.59;5206331;28;20032;-90
2022/09/15 08:38:12;;;;;;;17.88;16.45;;;;;;;-141.48;100.00;69781.59;5208625;28;20116;-91
2022/09/15 08:40:44;;;;;;;22.15;18.95;;;;;;;-141.48;100.00;69781.59;5189539;28;20018;-92
2022/09/15 08:43:22;;;;;;;17.40;15.70;;;;;;;-141.48;100.00;69781.59;5188734;28;20057;-90
2022/09/15 08:46:00;;;;;;;21.50;15.65;;;;;;;-141.48;100.00;69781.59;5188709;28;20025;-91
2022/09/15 08:48:38;;;;;;;18.80;17.20;;;;;;;-141.48;100.00;69781.59;5206777;28;20018;-90
2022/09/15 08:51:19;;;;;;;18.87;16.90;;;;;;;-141.48;100.00;69781.59;5206223;28;20026;-90
2022/09/15 08:53:54;;;;;;;17.65;14.95;;;;;;;-141.48;100.00;69781.59;5206078;28;20036;-91
2022/09/15 08:56:27;;;;;;;17.90;16.25;;;;;;;-141.48;100.00;69781.59;5188569;28;20022;-91
2022/09/15 08:58:58;;;;;;;14.73;13.30;;;;;;;-141.48;100.00;69781.59;5188733;28;20490;-90
2022/09/15 09:01:45;;;;;;;16.58;14.98;;;;;;;-141.48;100.00;69781.59;5189121;28;20037;-90
2022/09/15 09:04:34;;;;;;;17.67;13.30;;;;;;;-141.48;100.00;69781.59;5187480;28;20116;-89
2022/09/15 09:07:29;;;;;;;14.88;13.60;;;;;;;-141.48;100.00;69781.59;5205746;28;20029;-91
2022/09/15 09:10:18;;;;;;;12.32;11.38;;;;;;;-141.48;100.00;69781.59;5205828;28;20021;-90
2022/09/15 09:13:14;;;;;;;14.07;10.43;;;;;;;-141.48;100.00;69781.59;5206522;28;20028;-90
2022/09/15 09:16:04;;;;;;;9.10;8.50;;;;;;;-141.48;100.00;69781.59;5187948;28;20128;-91
2022/09/15 09:19:05;;;;;;;9.18;6.28;;;;;;;-141.48;100.00;69781.59;5188858;28;20091;-90
2022/09/15 09:21:45;;;;;;;9.38;5.05;;;;;;;-141.48;100.00;69781.59;5188222;28;20694;-90
2022/09/15 09:24:23;;;;;;;7.13;5.43;;;;;;;-141.48;100.00;69781.59;5205860;28;20383;-91
2022/09/15 09:26:54;;;;;;;4.80;4.40;;;;;;;-141.48;100.00;69781.59;5188405;28;20033;-90
2022/09/15 09:29:36;;;;;;;3.80;3.50;;;;;;;-141.48;100.00;69781.59;5218608;22;20048;-67
2022/09/15 09:32:22;;;;;;;6.80;6.30;;;;;;;-141.48;100.00;69781.59;5203635;28;20034;-67
2022/09/15 09:35:13;;;;;;;9.52;6.93;;;;;;;-141.48;100.00;69781.59;5204718;28;20022;-67
2022/09/15 09:37:43;;;;;;;7.28;6.60;;;;;;;-141.48;100.00;69781.59;5205117;28;20492;-67
2022/09/15 09:40:14;;;;;;;10.40;9.45;;;;;;;-141.48;100.00;69781.59;5204676;28;20112;-67
2022/09/15 09:42:45;;;;;;;10.30;9.32;;;;;;;-141.48;100.00;69781.59;5202967;28;20486;-67
2022/09/15 09:45:18;;;;;;;7.85;7.28;;;;;;;-141.48;100.00;69781.59;5203695;28;20029;-67
2022/09/15 09:47:49;;;;;;;15.88;8.25;;;;;;;-141.48;100.00;69781.59;5203741;28;20505;-69
2022/09/15 09:50:35;;;;;;;8.10;7.53;;;;;;;-141.48;100.00;69781.59;5203718;28;20120;-67
2022/09/15 09:53:32;;;;;;;7.82;5.28;;;;;;;-141.48;100.00;69781.59;5202943;28;20116;-67
2022/09/15 09:56:11;;;;;;;5.60;5.20;;;;;;;-141.48;100.00;69781.59;5203206;28;20083;-67
2022/09/15 09:58:43;;;;;;;5.43;2.70;;;;;;;-141.48;100.00;69781.59;5200853;28;20604;-67
2022/09/15 10:01:16;;;;;;;2.60;2.35;;;;;;;-141.48;100.00;69781.59;5199629;28;20025;-67
2022/09/15 10:03:46;;;;;;;4.70;3.05;;;;;;;-141.48;100.00;69781.59;5201569;28;20486;-67
2022/09/15 10:06:21;;;;;;;4.18;3.83;;;;;;;-141.48;100.00;69781.59;5204349;28;20036;-66
2022/09/15 10:08:56;;;;;;;4.20;3.65;;;;;;;-141.48;100.00;69781.59;5203930;28;20024;-66
2022/09/15 10:11:42;;;;;;;11.05;3.22;;;;;;;-141.48;100.00;69781.59;5202370;28;20337;-68
2022/09/15 10:14:29;;;;;;;2.75;2.55;;;;;;;-141.48;100.00;69781.59;5200692;28;20406;-66
2022/09/15 10:17:11;;;;;;;4.45;3.25;;;;;;;-141.48;100.00;69781.59;5202209;28;20281;-67
2022/09/15 10:19:41;;;;;;;3.53;3.25;;;;;;;-141.48;100.00;69781.59;5203466;28;20313;-66
2022/09/15 10:22:37;;;;;;;3.67;3.35;;;;;;;-141.48;100.00;69781.59;5203573;28;20108;-66
2022/09/15 10:25:35;;;;;;;5.13;3.00;;;;;;;-141.48;100.00;69781.59;5194013;28;20033;-66
2022/09/15 10:28:16;;;;;;;2.72;2.53;;;;;;;-141.48;100.00;69781.59;5200013;28;20482;-67
2022/09/15 10:31:06;;;;;;;3.08;2.42;;;;;;;-141.48;100.00;69781.59;5203150;28;20031;-67
2022/09/15 10:33:40;;;;;;;14.30;4.25;;;;;;;-141.48;100.00;69781.59;5202333;28;20025;-67
2022/09/15 10:36:14;;;;;;;3.88;3.53;;;;;;;-141.48;100.00;69781.59;5201772;28;20036;-67
2022/09/15 10:38:47;;;;;;;6.75;4.32;;;;;;;-141.48;100.00;69781.59;5202954;28;20021;-66
2022/09/15 10:41:30;;;;;;;2.95;2.30;;;;;;;-141.48;100.00;69781.59;5202996;28;20029;-67
2022/09/15 10:44:28;;;;;;;4.15;2.22;;;;;;;-141.48;100.00;69781.59;5202086;28;20056;-65
2022/09/15 10:47:30;;;;;;;10.93;3.47;;;;;;;-141.48;100.00;69781.59;5203126;28;20032;-66
2022/09/15 10:50:13;;;;;;;4.22;3.88;;;;;;;-141.48;100.00;69781.59;5203112;28;20490;-65
2022/09/15 10:53:01;;;;;;;5.47;3.92;;;;;;;-141.48;100.00;69781.59;5203769;28;20025;-65
2022/09/15 10:55:46;;;;;;;7.60;4.35;;;;;;;-141.48;100.00;69781.59;5203012;28;20056;-65
2022/09/15 10:58:42;;;;;;;4.10;3.75;;;;;;;-141.48;100.00;69781.59;5203696;28;20021;-65
2022/09/15 11:01:25;;;;;;;2.55;2.45;;;;;;;-141.48;100.00;69781.59;5203701;28;20030;-65
2022/09/15 11:03:59;;;;;;;3.25;2.95;;;;;;;-141.48;100.00;69781.59;5202938;28;20053;-65
2022/09/15 11:06:47;;;;;;;2.20;2.10;;;;;;;-141.48;100.00;69781.59;5205149;28;20062;-65
2022/09/15 11:09:41;;;;;;;5.63;3.90;;;;;;;-141.48;100.00;69781.59;5207610;28;20060;-65
2022/09/15 11:12:39;;;;;;;3.40;2.72;;;;;;;-141.48;100.00;69781.59;5207743;28;20268;-65
2022/09/15 11:15:18;;;;;;;2.75;2.55;;;;;;;-141.48;100.00;69781.59;5206813;28;20059;-65
2022/09/15 11:17:51;;;;;;;2.60;2.50;;;;;;;-141.48;100.00;69781.59;5207480;28;20041;-65
2022/09/15 11:20:42;;;;;;;2.90;2.70;;;;;;;-141.48;100.00;69781.59;5207110;28;20044;-65
2022/09/15 11:23:19;;;;;;;2.55;2.45;;;;;;;-141.48;100.00;69781.59;5207911;28;20099;-65
2022/09/15 11:25:57;;;;;;;2.90;2.67;;;;;;;-141.48;100.00;69781.59;5206912;28;20025;-67
2022/09/15 11:28:46;;;;;;;3.17;2.97;;;;;;;-141.48;100.00;69781.59;5206770;28;20033;-65
2022/09/15 11:31:26;;;;;;;4.55;3.35;;;;;;;-141.48;100.00;69781.59;5205968;28;20031;-67
2022/09/15 11:34:11;;;;;;;2.90;2.80;;;;;;;-141.48;100.00;69781.59;5206238;28;20488;-65